Time;durP1;ratioP1;P1;durP2;ratioP2;P2;SDS_P1;SDS_P2;PMS_P1;PMS_P2;Temp;Humidity;BMP_temperature;BMP_pressure;BME280_temperature;BME280_humidity;BME280_pressure;Samples;Min_cycle;Max_cycle;Signal;HPM_P1;HPM_P2
2023/10/13 00:00:59;;;;;;;7.60;6.30;;;;;;;15.57;100.00;99465.28;6111298;23;20162;-89
2023/10/13 00:03:31;;;;;;;7.70;6.13;;;;;;;15.52;100.00;99470.63;6135378;23;20178;-88
2023/10/13 00:06:02;;;;;;;7.50;6.63;;;;;;;15.51;100.00;99460.91;6135850;23;20166;-89
2023/10/13 00:08:33;;;;;;;7.30;6.60;;;;;;;15.48;100.00;99458.69;6130345;23;20285;-89
2023/10/13 00:11:06;;;;;;;9.00;6.47;;;;;;;15.49;100.00;99460.28;6152817;23;20187;-89
2023/10/13 00:13:50;;;;;;;7.03;6.10;;;;;;;15.45;100.00;99469.97;6130786;23;20203;-89
2023/10/13 00:16:28;;;;;;;6.63;5.80;;;;;;;15.42;100.00;99475.91;6133680;23;20167;-89
2023/10/13 00:18:57;;;;;;;7.40;5.90;;;;;;;15.42;100.00;99475.91;6154590;23;20213;-89
2023/10/13 00:21:33;;;;;;;8.57;6.60;;;;;;;15.42;100.00;99473.19;6154275;23;20198;-89
2023/10/13 00:24:12;;;;;;;7.70;6.53;;;;;;;15.37;100.00;99487.47;6154457;23;20628;-89
2023/10/13 00:26:42;;;;;;;8.53;6.57;;;;;;;15.36;100.00;99480.44;6129749;23;20179;-89
2023/10/13 00:31:42;;;;;;;10.87;6.00;;;;;;;15.36;100.00;99466.94;6130100;23;20171;-89
2023/10/13 00:34:18;;;;;;;9.63;5.90;;;;;;;15.35;100.00;99476.09;6154161;23;20642;-90
2023/10/13 00:39:36;;;;;;;8.70;6.27;;;;;;;15.31;100.00;99474.97;6133706;23;20167;-89
2023/10/13 00:42:09;;;;;;;6.80;6.10;;;;;;;15.30;100.00;99478.72;6154109;23;20175;-89
2023/10/13 00:44:41;;;;;;;6.80;6.13;;;;;;;15.31;100.00;99464.16;6154225;23;20178;-89
2023/10/13 00:50:01;;;;;;;8.20;6.30;;;;;;;15.24;100.00;99470.84;6132984;23;20179;-89
2023/10/13 00:52:35;;;;;;;9.03;6.70;;;;;;;15.23;100.00;99486.22;6153927;23;20685;-89
2023/10/13 00:55:08;;;;;;;8.67;6.80;;;;;;;15.29;100.00;99500.59;6130040;23;20159;-90
2023/10/13 00:57:37;;;;;;;8.47;7.10;;;;;;;15.23;100.00;99477.31;6130016;23;20168;-89
2023/10/13 01:00:19;;;;;;;8.00;6.97;;;;;;;15.19;100.00;99479.72;6154085;23;20238;-89
2023/10/13 01:02:55;;;;;;;7.73;6.60;;;;;;;15.19;100.00;99481.59;6153842;23;20606;-89
2023/10/13 01:05:25;;;;;;;8.10;6.50;;;;;;;15.19;100.00;99482.41;6131207;23;20163;-90
2023/10/13 01:08:01;;;;;;;8.23;6.53;;;;;;;15.18;100.00;99477.25;6133715;23;20234;-89
2023/10/13 01:10:32;;;;;;;8.37;6.40;;;;;;;15.16;100.00;99471.31;6136185;23;20194;-89
2023/10/13 01:13:03;;;;;;;7.80;6.40;;;;;;;15.15;100.00;99475.06;6137837;23;20253;-89
2023/10/13 01:15:33;;;;;;;8.17;6.70;;;;;;;15.13;100.00;99485.28;6136634;23;20154;-89
2023/10/13 01:18:15;;;;;;;8.13;7.03;;;;;;;15.13;100.00;99483.41;6136601;23;20281;-89
2023/10/13 01:20:52;;;;;;;7.77;6.10;;;;;;;15.16;100.00;99482.91;6139525;23;20154;-89
2023/10/13 01:23:28;;;;;;;7.37;6.67;;;;;;;15.14;100.00;99479.66;6161568;23;20652;-90
2023/10/13 01:25:56;;;;;;;8.90;7.00;;;;;;;15.12;100.00;99484.47;6136292;23;20233;-89
2023/10/13 01:28:28;;;;;;;8.97;7.07;;;;;;;15.12;100.00;99480.94;6136653;23;20206;-90
2023/10/13 01:30:57;;;;;;;7.00;6.30;;;;;;;15.12;100.00;99492.56;6137489;23;20151;-89
2023/10/13 01:33:28;;;;;;;8.40;7.00;;;;;;;15.14;100.00;99495.03;6136326;23;20186;-90
2023/10/13 01:36:06;;;;;;;7.60;6.87;;;;;;;15.12;100.00;99489.88;6136354;23;20174;-89
2023/10/13 01:38:42;;;;;;;7.33;6.43;;;;;;;15.12;100.00;99487.16;6139723;23;20155;-90
2023/10/13 01:41:09;;;;;;;8.40;6.57;;;;;;;15.12;100.00;99470.97;6137353;23;20162;-88
2023/10/13 01:43:38;;;;;;;9.53;6.60;;;;;;;15.10;100.00;99475.81;6136512;23;20257;-89
2023/10/13 01:46:09;;;;;;;9.10;6.30;;;;;;;15.10;100.00;99475.00;6135946;23;20677;-89
2023/10/13 01:48:39;;;;;;;8.27;6.70;;;;;;;15.12;100.00;99478.25;6161548;23;20178;-89
2023/10/13 01:51:11;;;;;;;9.07;6.67;;;;;;;15.12;100.00;99475.56;6136129;23;20655;-89
2023/10/13 01:53:43;;;;;;;8.57;6.93;;;;;;;15.15;100.00;99485.88;6136848;23;20256;-90
2023/10/13 01:56:14;;;;;;;9.97;6.53;;;;;;;15.13;100.00;99477.19;6136646;23;20614;-89
2023/10/13 01:58:47;;;;;;;7.73;6.27;;;;;;;15.13;100.00;99483.41;6137282;23;20166;-89
2023/10/13 02:01:35;;;;;;;7.67;6.23;;;;;;;15.08;100.00;99482.53;6137186;23;20185;-89
2023/10/13 02:04:06;;;;;;;8.13;6.97;;;;;;;15.08;100.00;99487.94;6140192;23;20598;-88
2023/10/13 02:06:36;;;;;;;10.30;6.50;;;;;;;15.10;100.00;99477.72;6136164;23;20217;-89
2023/10/13 02:09:25;;;;;;;8.23;6.93;;;;;;;15.08;100.00;99486.03;6137076;23;20285;-89
2023/10/13 02:11:54;;;;;;;7.57;6.83;;;;;;;15.08;100.00;99479.84;6160297;23;20170;-88
2023/10/13 02:14:25;;;;;;;8.07;6.77;;;;;;;15.06;100.00;99479.28;6112390;23;20198;-89
2023/10/13 02:17:12;;;;;;;7.27;6.50;;;;;;;15.10;100.00;99481.22;6136239;23;20167;-89
2023/10/13 02:19:45;;;;;;;8.60;7.33;;;;;;;15.09;100.00;99459.88;6140604;23;20151;-89
2023/10/13 02:22:27;;;;;;;8.57;6.60;;;;;;;15.14;100.00;99454.53;6160147;23;20197;-88
2023/10/13 02:25:01;;;;;;;7.37;6.57;;;;;;;15.11;100.00;99465.84;6135867;23;20253;-89
2023/10/13 02:27:40;;;;;;;10.00;6.13;;;;;;;15.08;100.00;99459.06;6160830;23;20257;-89
2023/10/13 02:30:14;;;;;;;6.80;6.17;;;;;;;15.10;100.00;99480.41;6137771;23;20831;-89
2023/10/13 02:32:43;;;;;;;7.60;6.90;;;;;;;15.07;100.00;99470.13;6136144;23;20171;-89
2023/10/13 02:35:17;;;;;;;7.10;6.40;;;;;;;15.03;100.00;99472.50;6136675;23;20159;-89
2023/10/13 02:37:56;;;;;;;7.77;6.23;;;;;;;15.04;100.00;99468.72;6161576;23;20616;-90
2023/10/13 02:40:25;;;;;;;6.93;6.23;;;;;;;15.07;100.00;99468.22;6186157;23;20166;-89
2023/10/13 02:43:01;;;;;;;7.87;6.40;;;;;;;15.05;100.00;99470.38;6159603;23;20174;-89
2023/10/13 02:45:57;;;;;;;7.20;6.50;;;;;;;15.03;100.00;99461.69;6186304;23;20163;-90
2023/10/13 02:48:42;;;;;;;6.27;5.63;;;;;;;15.03;100.00;99458.19;6125720;23;20233;-89
2023/10/13 02:51:18;;;;;;;6.33;5.73;;;;;;;15.05;100.00;99462.28;6135711;23;20170;-89
2023/10/13 02:53:49;;;;;;;8.13;6.07;;;;;;;15.02;100.00;99456.56;6161911;23;20182;-89
2023/10/13 02:56:20;;;;;;;6.47;5.87;;;;;;;14.97;100.00;99462.72;6135788;23;20167;-89
2023/10/13 02:59:05;;;;;;;8.57;5.90;;;;;;;14.96;100.00;99458.41;6136697;23;20174;-89
2023/10/13 03:01:36;;;;;;;8.03;5.70;;;;;;;14.96;100.00;99461.09;6162442;23;20169;-89
2023/10/13 03:04:13;;;;;;;7.10;6.23;;;;;;;14.93;100.00;99462.41;6160669;23;20169;-90
2023/10/13 03:06:42;;;;;;;9.57;5.80;;;;;;;14.93;100.00;99470.50;6162193;23;20150;-89
2023/10/13 03:09:21;;;;;;;6.93;5.93;;;;;;;14.91;100.00;99477.22;6130382;23;20210;-89
2023/10/13 03:11:51;;;;;;;9.20;6.20;;;;;;;14.91;100.00;99475.34;6153626;23;20195;-91
2023/10/13 03:14:42;;;;;;;9.70;6.27;;;;;;;14.91;100.00;99482.63;6130451;23;20278;-90
2023/10/13 03:17:17;;;;;;;6.77;5.97;;;;;;;14.89;100.00;99465.84;6154775;23;20151;-89
2023/10/13 03:19:52;;;;;;;6.87;6.10;;;;;;;14.93;100.00;99469.69;6155097;23;20170;-89
2023/10/13 03:22:33;;;;;;;8.07;6.67;;;;;;;14.97;100.00;99465.44;6131072;23;20258;-89
2023/10/13 03:25:05;;;;;;;8.13;6.10;;;;;;;14.98;100.00;99464.34;6132019;23;20155;-89
2023/10/13 03:30:41;;;;;;;7.27;6.30;;;;;;;15.00;100.00;99464.91;6134068;23;20644;-89
2023/10/13 03:33:12;;;;;;;7.27;6.27;;;;;;;14.99;100.00;99463.28;6133546;23;20187;-89
2023/10/13 03:35:53;;;;;;;7.73;6.80;;;;;;;14.98;100.00;99462.47;6154354;23;20179;-89
2023/10/13 03:38:27;;;;;;;11.30;6.83;;;;;;;14.98;100.00;99470.56;6108447;23;20178;-89
2023/10/13 03:41:19;;;;;;;7.67;6.57;;;;;;;14.95;100.00;99468.38;6131619;23;20234;-89
2023/10/13 03:44:09;;;;;;;8.63;6.50;;;;;;;14.93;100.00;99467.00;6135341;23;20171;-89
2023/10/13 03:46:40;;;;;;;8.03;6.50;;;;;;;14.89;100.00;99469.38;6154563;23;20151;-90
2023/10/13 03:49:12;;;;;;;8.87;6.70;;;;;;;14.87;100.00;99468.00;6106938;23;20197;-89
2023/10/13 03:51:40;;;;;;;8.03;6.90;;;;;;;14.85;100.00;99475.50;6106416;23;20254;-89
2023/10/13 03:54:15;;;;;;;8.43;6.77;;;;;;;14.80;100.00;99476.25;6130558;23;20664;-89
2023/10/13 03:56:44;;;;;;;10.77;7.30;;;;;;;14.79;100.00;99482.72;6106963;23;20249;-89
2023/10/13 04:01:47;;;;;;;10.07;7.47;;;;;;;14.76;100.00;99477.84;6129727;23;20644;-89
2023/10/13 04:04:31;;;;;;;10.07;7.73;;;;;;;14.77;100.00;99479.47;6130400;23;20193;-90
2023/10/13 04:09:54;;;;;;;8.73;7.43;;;;;;;14.81;100.00;99471.69;6154087;23;20203;-89
2023/10/13 04:13:37;;;;;;;7.60;6.83;;;;;;;14.79;100.00;99474.63;6130325;23;20167;-89
2023/10/13 04:15:17;;;;;;;8.80;7.90;;;;;;;14.81;100.00;99477.91;6133943;23;20206;-90
2023/10/13 04:17:50;;;;;;;9.60;7.13;;;;;;;14.79;100.00;99477.31;6108595;23;20178;-89
2023/10/13 04:20:32;;;;;;;10.13;7.50;;;;;;;14.81;100.00;99482.47;6106506;23;20171;-89
2023/10/13 04:36:36;;;;;;;11.67;7.17;;;;;;;14.77;100.00;99495.66;6154476;23;20163;-89
2023/10/13 04:41:43;;;;;;;8.70;6.73;;;;;;;14.77;100.00;99495.66;6153759;23;20171;-88
2023/10/13 04:52:38;;;;;;;8.13;6.73;;;;;;;14.82;100.00;99484.13;6130904;23;20633;-89
2023/10/13 04:55:16;;;;;;;8.50;6.53;;;;;;;14.86;100.00;99490.63;6133974;23;20191;-88
2023/10/13 05:45:24;;;;;;;8.60;6.07;;;;;;;15.12;100.00;99529.53;6138128;23;20217;-90
2023/10/13 05:48:12;;;;;;;8.57;5.70;;;;;;;15.19;100.00;99530.16;6137782;23;20167;-90
2023/10/13 06:29:45;;;;;;;9.20;5.90;;;;;;;16.57;100.00;99542.00;6139715;23;20187;-91
2023/10/13 06:32:16;;;;;;;10.63;5.80;;;;;;;16.65;100.00;99542.38;6137405;23;20163;-90
2023/10/13 06:34:47;;;;;;;8.07;5.83;;;;;;;16.76;100.00;99543.22;6136858;23;20192;-90
2023/10/13 06:37:32;;;;;;;6.97;5.53;;;;;;;16.89;100.00;99547.38;6138062;23;20162;-90
2023/10/13 06:40:22;;;;;;;8.70;5.97;;;;;;;16.99;100.00;99555.53;6115056;23;20199;-90
2023/10/13 06:42:49;;;;;;;8.50;5.67;;;;;;;17.11;100.00;99553.44;6140025;23;20257;-90
2023/10/13 06:45:17;;;;;;;7.90;5.57;;;;;;;17.22;100.00;99565.16;6112341;23;20178;-90
2023/10/13 06:47:46;;;;;;;8.77;5.77;;;;;;;17.30;100.00;99570.03;6136355;23;20229;-90
2023/10/13 06:50:15;;;;;;;11.57;5.90;;;;;;;17.31;100.00;99571.69;6135788;23;20182;-89
2023/10/13 06:52:43;;;;;;;6.93;5.60;;;;;;;17.26;100.00;99572.47;6136419;23;20163;-90
2023/10/13 06:55:17;;;;;;;9.67;7.17;;;;;;;17.24;100.00;99571.09;6135869;23;20198;-90
2023/10/13 06:57:46;;;;;;;9.80;6.70;;;;;;;17.16;100.00;99577.84;6137491;23;20156;-90
2023/10/13 07:00:29;;;;;;;11.67;6.93;;;;;;;17.10;100.00;99568.88;6136471;23;20164;-90
2023/10/13 07:05:58;;;;;;;6.77;5.20;;;;;;;17.09;100.00;99585.38;6138954;23;20176;-89
2023/10/13 07:08:31;;;;;;;7.70;5.23;;;;;;;17.20;100.00;99584.34;6113008;23;20217;-90
2023/10/13 07:11:05;;;;;;;8.63;5.27;;;;;;;17.32;100.00;99582.22;6135892;23;20705;-90
2023/10/13 07:13:37;;;;;;;12.73;5.23;;;;;;;17.41;100.00;99568.97;6160497;23;20179;-89
2023/10/13 07:16:12;;;;;;;6.63;4.87;;;;;;;17.50;100.00;99567.38;6136531;23;20219;-90
2023/10/13 07:19:04;;;;;;;8.57;5.70;;;;;;;17.62;100.00;99572.63;6143552;23;20178;-89
2023/10/13 07:21:35;;;;;;;9.77;4.83;;;;;;;17.74;100.00;99568.56;6136993;23;20160;-89
2023/10/13 07:24:12;;;;;;;6.97;5.00;;;;;;;17.87;100.00;99580.81;6111803;23;20276;-90
2023/10/13 07:26:47;;;;;;;8.07;5.10;;;;;;;18.01;100.00;99585.41;6136842;23;20252;-90
2023/10/13 07:29:17;;;;;;;8.43;5.47;;;;;;;18.13;100.00;99581.66;6113221;23;20164;-90
2023/10/13 07:31:50;;;;;;;9.10;5.40;;;;;;;18.25;100.00;99587.59;6136455;23;20220;-90
2023/10/13 07:34:31;;;;;;;8.57;5.10;;;;;;;18.36;100.00;99578.41;6159667;23;20662;-89
2023/10/13 07:37:07;;;;;;;11.97;5.27;;;;;;;18.49;100.00;99580.56;6114428;23;20184;-90
2023/10/13 07:39:38;;;;;;;12.20;5.10;;;;;;;18.59;100.00;99566.22;6137194;23;20159;-89
2023/10/13 07:42:07;;;;;;;8.93;5.00;;;;;;;18.69;100.00;99561.59;6135747;23;20156;-89
2023/10/13 07:44:36;;;;;;;9.17;4.70;;;;;;;18.80;100.00;99565.09;6111137;23;20205;-89
2023/10/13 07:47:07;;;;;;;10.93;4.70;;;;;;;18.89;100.00;99563.47;6134949;23;20174;-88
2023/10/13 07:49:37;;;;;;;13.40;5.00;;;;;;;18.99;100.00;99562.63;6136765;23;20158;-89
2023/10/13 07:55:11;;;;;;;12.47;5.03;;;;;;;19.16;100.00;99563.09;6136757;23;20279;-89
2023/10/13 07:57:54;;;;;;;8.23;4.57;;;;;;;19.25;100.00;99564.16;6115224;23;20164;-89
2023/10/13 08:00:46;;;;;;;11.50;4.77;;;;;;;19.34;100.00;99566.00;6137794;23;20167;-89
2023/10/13 08:08:39;;;;;;;7.33;4.57;;;;;;;19.69;100.00;99566.97;6163779;23;20196;-89
2023/10/13 08:11:30;;;;;;;8.83;4.50;;;;;;;19.78;100.00;99568.78;6137965;23;20190;-88
2023/10/13 08:14:11;;;;;;;12.47;5.00;;;;;;;19.93;100.00;99569.78;6135283;23;20175;-89
2023/10/13 08:16:59;;;;;;;10.60;4.72;;;;;;;20.05;100.00;99562.91;6140176;23;20265;-89
2023/10/13 08:19:49;;;;;;;11.50;4.37;;;;;;;20.17;100.00;99565.25;6134606;23;20181;-89
2023/10/13 08:27:34;;;;;;;8.88;4.63;;;;;;;20.54;100.00;99556.53;6136094;23;20181;-89
2023/10/13 08:30:42;;;;;;;9.52;4.18;;;;;;;20.67;100.00;99555.09;6140830;23;20175;-89
2023/10/13 08:33:18;;;;;;;7.63;4.53;;;;;;;20.86;100.00;99554.03;6138527;23;20182;-89
2023/10/13 08:35:55;;;;;;;7.82;4.43;;;;;;;21.05;100.00;99556.81;6112686;23;20197;-89
2023/10/13 08:38:28;;;;;;;7.40;4.10;;;;;;;21.22;100.00;99551.78;6158796;23;20205;-88
2023/10/13 08:43:50;;;;;;;12.88;4.65;;;;;;;21.47;100.00;99550.63;6118613;23;20174;-89
2023/10/13 08:46:29;;;;;;;9.10;4.10;;;;;;;21.65;100.00;99559.94;6111710;23;20163;-89
2023/10/13 08:51:43;;;;;;;7.57;4.22;;;;;;;21.91;100.00;99559.28;6136674;23;20617;-88
2023/10/13 08:54:34;;;;;;;7.07;4.45;;;;;;;22.10;100.00;99558.47;6136421;23;20241;-89
2023/10/13 08:57:32;;;;;;;10.05;4.13;;;;;;;22.26;100.00;99552.47;6114541;23;20257;-88
2023/10/13 09:02:59;;;;;;;7.05;4.20;;;;;;;22.59;100.00;99552.44;6154177;23;20177;-88
2023/10/13 09:06:00;;;;;;;9.40;3.67;;;;;;;22.73;100.00;99553.31;6158999;23;20608;-88
2023/10/13 09:08:35;;;;;;;8.55;4.10;;;;;;;22.88;100.00;99553.03;6140740;23;20505;-89
2023/10/13 09:11:12;;;;;;;7.30;3.67;;;;;;;23.03;100.00;99558.22;6135893;23;20207;-88
2023/10/13 09:13:46;;;;;;;8.02;3.92;;;;;;;23.13;100.00;99549.00;6135891;23;20190;-88
2023/10/13 09:16:21;;;;;;;8.07;4.22;;;;;;;23.23;100.00;99549.63;6112202;23;20186;-88
2023/10/13 09:18:52;;;;;;;7.65;4.05;;;;;;;23.31;100.00;99552.75;6110306;23;20170;-88
2023/10/13 09:21:43;;;;;;;7.72;4.20;;;;;;;23.36;100.00;99550.72;6136391;23;20214;-89
2023/10/13 09:24:21;;;;;;;7.63;4.43;;;;;;;23.55;100.00;99550.63;6137778;23;20207;-88
2023/10/13 09:26:55;;;;;;;10.02;4.00;;;;;;;23.74;100.00;99545.81;6135773;23;20177;-88
2023/10/13 09:29:25;;;;;;;8.27;4.05;;;;;;;23.89;100.00;99542.72;6113762;23;20166;-88
2023/10/13 09:32:01;;;;;;;9.13;3.95;;;;;;;24.06;100.00;99551.09;6135733;23;20167;-88
2023/10/13 09:34:33;;;;;;;7.40;4.30;;;;;;;24.29;100.00;99540.16;6136241;23;20220;-88
2023/10/13 09:37:06;;;;;;;8.30;4.57;;;;;;;24.55;100.00;99541.94;6112214;23;20171;-88
2023/10/13 09:39:52;;;;;;;7.00;4.32;;;;;;;24.76;100.00;99536.72;6110946;23;20175;-88
2023/10/13 09:42:23;;;;;;;6.47;4.30;;;;;;;24.98;100.00;99528.47;6137136;23;20173;-87
2023/10/13 09:44:58;;;;;;;6.38;4.22;;;;;;;25.09;100.00;99526.25;6136594;23;20932;-87
2023/10/13 09:47:31;;;;;;;6.68;3.42;;;;;;;25.06;94.01;99518.66;6111028;23;20173;-88
2023/10/13 09:50:13;;;;;;;10.35;4.30;;;;;;;25.10;93.53;99527.88;6111325;23;20224;-88
2023/10/13 09:52:45;;;;;;;8.35;4.35;;;;;;;25.21;92.40;99518.22;6114230;23;20166;-88
2023/10/13 09:55:19;;;;;;;6.93;3.88;;;;;;;25.34;93.13;99519.22;6160088;23;20192;-88
2023/10/13 09:57:59;;;;;;;7.70;4.40;;;;;;;25.44;92.81;99522.47;6160006;23;20155;-88
2023/10/13 10:00:44;;;;;;;6.88;4.00;;;;;;;25.52;89.56;99517.31;6135744;23;20171;-88
2023/10/13 10:03:30;;;;;;;4.82;3.65;;;;;;;25.59;90.08;99518.47;6138907;23;20624;-88
2023/10/13 10:06:06;;;;;;;5.97;3.65;;;;;;;25.69;85.46;99514.63;6138597;23;20194;-88
2023/10/13 10:08:34;;;;;;;4.07;3.33;;;;;;;25.77;78.83;99508.31;6130914;23;20199;-88
2023/10/13 10:11:32;;;;;;;6.40;3.22;;;;;;;25.94;78.90;99508.34;6130626;23;20199;-88
2023/10/13 10:14:11;;;;;;;7.20;3.42;;;;;;;26.06;78.52;99505.72;6129871;23;20272;-88
2023/10/13 10:17:03;;;;;;;6.93;3.70;;;;;;;26.14;78.75;99504.09;6130046;23;20190;-88
2023/10/13 10:19:58;;;;;;;8.40;3.58;;;;;;;26.29;77.87;99509.13;6131026;23;20194;-87
2023/10/13 10:22:36;;;;;;;7.45;3.50;;;;;;;26.39;75.28;99503.28;6156144;23;20638;-89
2023/10/13 10:25:25;;;;;;;5.88;3.65;;;;;;;26.50;75.04;99503.75;6131899;23;20195;-88
2023/10/13 10:28:01;;;;;;;5.82;3.83;;;;;;;26.60;72.46;99504.19;6134093;23;20174;-88
2023/10/13 10:30:29;;;;;;;6.13;3.35;;;;;;;26.64;74.67;99496.09;6130021;23;20171;-86
2023/10/13 10:33:01;;;;;;;4.85;3.47;;;;;;;26.56;72.51;99492.25;6105585;23;20218;-87
2023/10/13 10:35:32;;;;;;;7.68;3.40;;;;;;;26.62;71.68;99490.13;6153356;23;20172;-86
2023/10/13 10:38:25;;;;;;;5.70;3.50;;;;;;;26.66;70.60;99480.09;6129372;23;20163;-87
2023/10/13 10:41:00;;;;;;;5.43;2.92;;;;;;;26.74;68.49;99473.72;6153917;23;20151;-86
2023/10/13 10:43:41;;;;;;;7.22;3.10;;;;;;;26.82;67.90;99481.16;6154788;23;20253;-86
2023/10/13 10:46:19;;;;;;;5.10;2.90;;;;;;;26.83;68.13;99473.72;6130667;23;20171;-86
2023/10/13 10:49:00;;;;;;;5.05;3.08;;;;;;;26.88;66.95;99476.28;6152856;23;20311;-86
2023/10/13 10:51:32;;;;;;;6.85;3.38;;;;;;;26.98;65.95;99464.91;6153569;23;20177;-86
2023/10/13 10:54:12;;;;;;;4.50;2.80;;;;;;;27.01;68.80;99473.34;6151906;23;20163;-86
2023/10/13 10:56:39;;;;;;;6.85;3.60;;;;;;;27.12;67.60;99465.50;6154502;23;20214;-86
2023/10/13 10:59:18;;;;;;;5.18;3.25;;;;;;;27.17;68.68;99466.09;6128954;23;20182;-86
2023/10/13 11:01:51;;;;;;;5.53;3.65;;;;;;;27.15;70.67;99456.59;6153281;23;20617;-86
2023/10/13 11:04:24;;;;;;;7.63;3.30;;;;;;;27.22;69.95;99447.78;6129203;23;20163;-87
2023/10/13 11:06:57;;;;;;;4.85;3.08;;;;;;;27.15;68.81;99451.91;6154347;23;20163;-87
2023/10/13 11:11:57;;;;;;;3.53;3.00;;;;;;;26.96;66.92;99446.03;6152955;23;20187;-86
2023/10/13 11:14:26;;;;;;;6.38;4.13;;;;;;;27.03;67.89;99445.50;6152881;23;20159;-86
2023/10/13 11:17:00;;;;;;;5.53;3.53;;;;;;;27.12;67.59;99438.00;6153618;23;20198;-86
2023/10/13 11:19:43;;;;;;;6.28;3.47;;;;;;;27.21;68.03;99435.19;6153610;23;20171;-85
2023/10/13 11:22:36;;;;;;;7.75;3.80;;;;;;;27.28;67.97;99438.22;6152895;23;20272;-86
2023/10/13 11:25:12;;;;;;;4.90;3.28;;;;;;;27.30;68.25;99433.97;6132235;23;20174;-86
2023/10/13 11:30:25;;;;;;;4.47;3.38;;;;;;;27.25;69.55;99431.44;6153006;23;20174;-87
2023/10/13 11:33:08;;;;;;;8.00;4.00;;;;;;;27.09;69.91;99420.22;6153190;23;20637;-86
2023/10/13 11:38:28;;;;;;;6.45;3.90;;;;;;;27.26;68.67;99407.47;6153436;23;20174;-86
2023/10/13 11:51:48;;;;;;;5.88;3.45;;;;;;;27.35;69.44;99402.72;6152089;23;20246;-86
2023/10/13 11:54:19;;;;;;;5.97;3.53;;;;;;;27.26;69.70;99397.28;6128848;23;20173;-86
2023/10/13 11:56:49;;;;;;;9.23;3.70;;;;;;;27.35;69.14;99394.47;6104980;23;20725;-86
2023/10/13 11:59:24;;;;;;;4.85;3.40;;;;;;;27.39;68.47;99387.19;6154208;23;20218;-86
2023/10/13 12:12:40;;;;;;;5.78;3.30;;;;;;;27.79;67.14;99373.72;6183933;23;20170;-86
2023/10/13 12:15:09;;;;;;;4.60;3.67;;;;;;;27.62;66.68;99369.19;6112069;23;20159;-84
2023/10/13 12:17:44;;;;;;;4.50;3.80;;;;;;;27.66;66.96;99370.13;6158217;23;20196;-87
2023/10/13 12:20:32;;;;;;;7.22;3.67;;;;;;;27.69;65.60;99361.19;6184467;23;20680;-86
2023/10/13 12:23:15;;;;;;;6.93;3.28;;;;;;;27.67;65.42;99368.19;6184159;23;20190;-86
2023/10/13 12:25:59;;;;;;;8.05;3.80;;;;;;;27.76;65.97;99357.88;6184305;23;20167;-86
2023/10/13 12:28:28;;;;;;;6.50;3.63;;;;;;;27.82;64.88;99354.56;6136603;23;20170;-86
2023/10/13 12:31:07;;;;;;;7.90;3.58;;;;;;;27.85;65.70;99356.66;6158035;23;20170;-83
2023/10/13 12:33:40;;;;;;;5.00;3.47;;;;;;;27.93;66.47;99349.44;6134201;23;20166;-85
2023/10/13 12:52:19;;;;;;;7.38;3.75;;;;;;;28.11;64.86;99328.03;6184278;23;20590;-86
2023/10/13 12:55:01;;;;;;;7.60;3.78;;;;;;;28.13;65.10;99325.75;6135727;23;20190;-86
2023/10/13 12:57:44;;;;;;;7.22;4.07;;;;;;;28.16;64.98;99328.63;6155948;23;20175;-84
2023/10/13 13:00:23;;;;;;;7.47;3.05;;;;;;;28.16;63.78;99325.06;6158803;23;20166;-83
2023/10/13 13:02:55;;;;;;;7.15;4.05;;;;;;;28.26;64.03;99321.84;6185554;23;20675;-87
2023/10/13 13:05:31;;;;;;;5.88;3.72;;;;;;;28.33;64.79;99322.88;6135427;23;20594;-84
2023/10/13 13:07:58;;;;;;;8.40;3.80;;;;;;;28.28;64.23;99309.31;6183718;23;20147;-84
2023/10/13 13:10:34;;;;;;;9.10;4.40;;;;;;;28.24;64.12;99299.34;6159766;23;20187;-87
2023/10/13 13:13:04;;;;;;;6.82;4.22;;;;;;;28.21;64.04;99300.03;6136617;23;20197;-87
2023/10/13 13:15:31;;;;;;;7.15;3.70;;;;;;;28.24;63.96;99297.41;6134843;23;20226;-86
2023/10/13 13:18:09;;;;;;;6.45;3.90;;;;;;;28.26;63.82;99291.56;6185423;23;20158;-87
2023/10/13 13:20:56;;;;;;;6.35;3.70;;;;;;;28.40;63.06;99290.06;6138541;23;20213;-87
2023/10/13 13:23:26;;;;;;;6.63;3.83;;;;;;;28.43;63.96;99294.88;6162524;23;20197;-84
2023/10/13 13:25:57;;;;;;;7.97;4.20;;;;;;;28.49;63.65;99283.59;6135873;23;20182;-86
2023/10/13 13:28:37;;;;;;;6.65;3.90;;;;;;;28.45;64.18;99278.00;6159767;23;20201;-86
2023/10/13 13:31:15;;;;;;;8.00;3.80;;;;;;;28.52;64.36;99277.41;6162272;23;20180;-86
2023/10/13 13:33:45;;;;;;;6.30;3.40;;;;;;;28.55;63.90;99276.72;6158563;23;20151;-88
2023/10/13 13:36:15;;;;;;;5.50;3.80;;;;;;;28.49;63.81;99278.91;6158630;23;20276;-86
2023/10/13 13:39:02;;;;;;;7.35;3.90;;;;;;;28.39;63.21;99271.09;6184050;23;20173;-86
2023/10/13 13:41:34;;;;;;;4.90;3.70;;;;;;;28.32;64.05;99277.19;6185486;23;20181;-86
2023/10/13 13:44:14;;;;;;;5.80;3.58;;;;;;;28.29;63.17;99271.56;6158969;23;20225;-88
2023/10/13 13:46:42;;;;;;;8.02;3.55;;;;;;;28.23;62.82;99262.72;6134848;23;20174;-87
2023/10/13 13:49:18;;;;;;;9.18;3.85;;;;;;;28.13;63.25;99265.97;6159149;23;20193;-86
2023/10/13 13:51:51;;;;;;;6.55;3.80;;;;;;;28.03;63.12;99258.94;6159105;23;20193;-86
2023/10/13 13:54:20;;;;;;;7.28;3.72;;;;;;;27.97;63.48;99263.06;6134304;23;20166;-87
2023/10/13 13:56:49;;;;;;;4.95;3.28;;;;;;;27.93;64.15;99255.81;6158961;23;20193;-88
2023/10/13 13:59:19;;;;;;;8.35;3.47;;;;;;;27.83;63.80;99262.59;6185115;23;20171;-86
2023/10/13 14:01:47;;;;;;;7.32;3.70;;;;;;;27.74;63.74;99256.38;6185590;23;20162;-85
2023/10/13 14:04:17;;;;;;;8.98;3.67;;;;;;;27.74;63.68;99261.88;6184975;23;20257;-86
2023/10/13 14:06:44;;;;;;;6.63;3.70;;;;;;;27.62;64.21;99250.88;6158466;23;20175;-87
2023/10/13 14:10:05;;;;;;;8.00;3.63;;;;;;;27.55;63.98;99250.59;6128558;23;20270;-87
2023/10/13 14:14:57;;;;;;;8.18;4.10;;;;;;;27.34;64.72;99245.13;6132607;23;20606;-89
2023/10/13 14:17:30;;;;;;;8.50;3.70;;;;;;;27.28;64.67;99245.69;6154116;23;20167;-87
2023/10/13 14:19:58;;;;;;;4.90;3.53;;;;;;;27.20;64.87;99243.84;6130672;23;20259;-87
2023/10/13 14:22:36;;;;;;;6.28;3.85;;;;;;;27.17;65.35;99237.88;6155067;23;20152;-86
2023/10/13 14:25:14;;;;;;;7.85;3.30;;;;;;;27.12;65.85;99234.53;6108817;23;20174;-88
2023/10/13 14:27:46;;;;;;;6.45;3.42;;;;;;;27.13;65.12;99228.69;6131621;23;20154;-88
2023/10/13 14:30:19;;;;;;;8.60;3.45;;;;;;;27.05;65.42;99229.59;6130136;23;20185;-87
2023/10/13 14:32:58;;;;;;;5.57;3.50;;;;;;;27.02;65.98;99233.00;6108828;23;20155;-87
2023/10/13 14:35:26;;;;;;;11.63;3.90;;;;;;;26.95;65.79;99224.50;6130813;23;20171;-88
2023/10/13 14:37:55;;;;;;;8.07;4.00;;;;;;;26.81;66.07;99218.44;6130230;23;20194;-87
2023/10/13 14:40:23;;;;;;;5.38;3.42;;;;;;;26.69;66.58;99215.63;6129537;23;20198;-87
2023/10/13 14:42:56;;;;;;;8.63;3.60;;;;;;;26.69;66.61;99219.19;6130875;23;20198;-87
2023/10/13 14:45:24;;;;;;;5.97;3.63;;;;;;;26.59;67.18;99219.59;6154469;23;20241;-87
2023/10/13 14:47:52;;;;;;;6.07;3.58;;;;;;;26.55;67.17;99213.16;6130514;23;20222;-87
2023/10/13 14:50:25;;;;;;;4.93;3.55;;;;;;;26.46;67.65;99206.09;6107472;23;20171;-87
2023/10/13 14:52:57;;;;;;;7.75;3.75;;;;;;;26.34;68.20;99208.78;6106924;23;20226;-87
2023/10/13 14:55:37;;;;;;;7.07;3.45;;;;;;;26.25;68.71;99212.41;6131169;23;20174;-87
2023/10/13 14:58:07;;;;;;;7.03;3.60;;;;;;;26.15;69.10;99196.28;6109680;23;20190;-87
2023/10/13 15:00:36;;;;;;;5.80;3.83;;;;;;;26.06;69.69;99202.97;6130989;23;20653;-87
2023/10/13 15:03:08;;;;;;;8.73;3.72;;;;;;;26.01;69.97;99205.91;6106739;23;20171;-87
2023/10/13 15:05:43;;;;;;;8.98;3.67;;;;;;;25.89;70.64;99197.56;6131505;23;20171;-87
2023/10/13 15:08:18;;;;;;;7.28;3.67;;;;;;;25.78;71.35;99197.13;6110658;23;20171;-87
2023/10/13 15:10:46;;;;;;;9.65;3.92;;;;;;;25.65;72.66;99203.66;6135649;23;20194;-87
2023/10/13 15:13:14;;;;;;;10.00;4.40;;;;;;;25.69;73.13;99202.66;6111168;23;20174;-86
2023/10/13 15:15:46;;;;;;;7.68;4.50;;;;;;;25.52;74.34;99193.69;6136099;23;20162;-87
2023/10/13 15:18:14;;;;;;;9.52;4.43;;;;;;;25.80;74.51;99195.66;6135038;23;20689;-88
2023/10/13 15:20:43;;;;;;;10.45;4.85;;;;;;;25.73;74.56;99191.84;6111992;23;20190;-87
2023/10/13 15:23:23;;;;;;;8.68;4.07;;;;;;;25.33;75.63;99194.06;6134316;23;20163;-88
2023/10/13 15:25:51;;;;;;;8.52;4.10;;;;;;;25.13;76.64;99198.28;6135073;23;20157;-87